createdAt,value
2023-02-03T00:00:51.401Z,99955.13
2023-02-03T00:03:17.891Z,99947.44
2023-02-03T00:05:44.389Z,99963.44
2023-02-03T00:08:11.370Z,99962.59
2023-02-03T00:10:40.094Z,99946.28
2023-02-03T00:13:07.256Z,99954.06
2023-02-03T00:15:33.767Z,99959.22
2023-02-03T00:18:00.249Z,99949.59
2023-02-03T00:20:26.956Z,99941.06
2023-02-03T00:22:53.575Z,99934.13
2023-02-03T00:25:20.081Z,99931.97
2023-02-03T00:27:46.494Z,99941.38
2023-02-03T00:30:13.254Z,99942.88
2023-02-03T00:32:40.021Z,99938.38
2023-02-03T00:35:06.831Z,99937.63
2023-02-03T00:37:33.124Z,99931.88
2023-02-03T00:39:59.640Z,99926.63
2023-02-03T00:42:26.020Z,99921.69
2023-02-03T00:44:52.445Z,99910.81
2023-02-03T00:47:18.825Z,99907.59
2023-02-03T00:49:45.281Z,99924.91
2023-02-03T00:52:11.662Z,99900.78
2023-02-03T00:54:38.063Z,99897.50
2023-02-03T00:57:04.353Z,99909.69
2023-02-03T00:59:30.756Z,99887.59
2023-02-03T01:01:57.380Z,99875.66
2023-02-03T01:04:24.151Z,99842.19
2023-02-03T01:06:50.495Z,99857.91
2023-02-03T01:09:16.954Z,99879.59
2023-02-03T01:11:43.420Z,99877.81
2023-02-03T01:14:09.774Z,99881.88
2023-02-03T01:16:36.810Z,99892.53
2023-02-03T01:19:03.278Z,99877.81
2023-02-03T01:21:30.153Z,99877.06
2023-02-03T01:23:56.490Z,99889.00
2023-02-03T01:26:24.034Z,99889.56
2023-02-03T01:28:57.650Z,99878.28
2023-02-03T01:31:27.585Z,99878.66
2023-02-03T01:33:55.017Z,99874.09
2023-02-03T01:36:25.715Z,99882.63
2023-02-03T01:38:52.262Z,99878.69
2023-02-03T01:41:27.940Z,99877.41
2023-02-03T01:43:56.140Z,99864.56
2023-02-03T01:46:46.502Z,99874.28
2023-02-03T01:49:32.288Z,99869.09
2023-02-03T01:51:59.038Z,99880.63
2023-02-03T01:54:29.724Z,99870.66
2023-02-03T01:57:03.321Z,99858.56
2023-02-03T01:59:32.094Z,99860.69
2023-02-03T02:02:00.077Z,99871.66
2023-02-03T02:04:36.519Z,99877.50
2023-02-03T02:07:03.536Z,99866.56
2023-02-03T02:09:30.188Z,99860.44
2023-02-03T02:11:56.620Z,99857.28
2023-02-03T02:14:23.092Z,99856.41
2023-02-03T02:17:00.799Z,99867.78
2023-02-03T02:19:48.397Z,99878.78
2023-02-03T02:22:39.006Z,99855.03
2023-02-03T02:25:23.387Z,99867.28
2023-02-03T02:28:25.443Z,99848.41
2023-02-03T02:31:18.197Z,99855.56
2023-02-03T02:34:04.064Z,99846.34
2023-02-03T02:36:39.397Z,99858.88
2023-02-03T02:39:36.506Z,99849.63
2023-02-03T02:42:15.371Z,99873.84
2023-02-03T02:44:47.747Z,99876.38
2023-02-03T02:47:19.386Z,99875.41
2023-02-03T02:50:00.945Z,99865.13
2023-02-03T02:52:31.771Z,99850.06
2023-02-03T02:55:05.424Z,99847.78
2023-02-03T02:57:34.740Z,99837.31
2023-02-03T03:00:01.371Z,99831.78
2023-02-03T03:02:35.447Z,99826.69
2023-02-03T03:05:05.858Z,99829.78
2023-02-03T03:07:38.464Z,99823.63
2023-02-03T03:10:10.823Z,99826.22
2023-02-03T03:12:42.859Z,99834.75
2023-02-03T03:15:14.398Z,99838.66
2023-02-03T03:17:47.388Z,99846.25
2023-02-03T03:20:20.038Z,99844.56
2023-02-03T03:22:53.225Z,99841.34
2023-02-03T03:25:24.232Z,99835.03
2023-02-03T03:27:59.306Z,99815.97
2023-02-03T03:30:32.979Z,99785.16
2023-02-03T03:32:59.561Z,99785.38
2023-02-03T03:35:37.082Z,99794.47
2023-02-03T03:38:11.689Z,99812.41
2023-02-03T03:40:53.164Z,99811.78
2023-02-03T03:43:25.288Z,99802.88
2023-02-03T03:46:18.611Z,99794.22
2023-02-03T03:48:56.999Z,99789.75
2023-02-03T03:51:48.147Z,99790.72
2023-02-03T03:54:17.424Z,99797.66
2023-02-03T03:56:57.345Z,99801.56
2023-02-03T03:59:26.342Z,99815.50
2023-02-03T04:01:53.397Z,99818.38
2023-02-03T04:04:22.466Z,99809.22
2023-02-03T04:06:48.841Z,99810.84
2023-02-03T04:09:15.381Z,99813.81
2023-02-03T04:11:41.675Z,99841.56
2023-02-03T04:14:08.535Z,99834.16
2023-02-03T04:16:35.108Z,99838.47
2023-02-03T04:19:01.570Z,99821.28
2023-02-03T04:21:28.035Z,99820.03
2023-02-03T04:23:54.658Z,99821.84
2023-02-03T04:26:21.107Z,99806.66
2023-02-03T04:28:47.483Z,99804.81
2023-02-03T04:31:14.009Z,99808.69
2023-02-03T04:33:40.589Z,99793.63
2023-02-03T04:36:07.517Z,99772.09
2023-02-03T04:38:34.063Z,99767.03
2023-02-03T04:41:00.455Z,99752.56
2023-02-03T04:43:27.259Z,99754.78
2023-02-03T04:45:53.695Z,99741.34
2023-02-03T04:48:20.074Z,99737.28
2023-02-03T04:50:46.753Z,99739.63
2023-02-03T04:53:15.651Z,99729.09
2023-02-03T04:55:45.987Z,99732.66
2023-02-03T04:58:12.325Z,99747.25
2023-02-03T05:00:38.880Z,99735.34
2023-02-03T05:03:05.305Z,99707.53
2023-02-03T05:05:31.714Z,99702.72
2023-02-03T05:07:58.128Z,99704.06
2023-02-03T05:10:24.542Z,99694.50
2023-02-03T05:12:51.283Z,99695.34
2023-02-03T05:15:17.664Z,99687.38
2023-02-03T05:17:44.197Z,99698.09
2023-02-03T05:20:11.197Z,99666.63
2023-02-03T05:22:37.649Z,99661.19
2023-02-03T05:25:04.788Z,99699.97
2023-02-03T05:27:31.585Z,99699.25
2023-02-03T05:29:57.939Z,99693.38
2023-02-03T05:32:24.583Z,99703.38
2023-02-03T05:34:51.226Z,99693.31
2023-02-03T05:37:17.652Z,99692.63
2023-02-03T05:39:44.099Z,99687.28
2023-02-03T05:42:10.638Z,99683.25
2023-02-03T05:44:37.149Z,99710.59
2023-02-03T05:47:03.535Z,99704.84
2023-02-03T05:49:30.022Z,99687.44
2023-02-03T05:51:56.778Z,99693.09
2023-02-03T05:54:23.183Z,99694.94
2023-02-03T05:56:49.649Z,99681.78
2023-02-03T05:59:16.151Z,99693.22
2023-02-03T06:01:42.625Z,99684.41
2023-02-03T06:04:09.348Z,99666.25
2023-02-03T06:06:35.917Z,99667.97
2023-02-03T06:09:07.915Z,99654.09
2023-02-03T06:11:35.073Z,99670.19
2023-02-03T06:14:02.115Z,99658.09
2023-02-03T06:16:29.455Z,99653.97
2023-02-03T06:18:56.646Z,99671.28
2023-02-03T06:21:23.276Z,99665.06
2023-02-03T06:23:49.886Z,99670.16
2023-02-03T06:26:16.640Z,99661.94
2023-02-03T06:28:43.065Z,99657.31
2023-02-03T06:31:09.874Z,99656.47
2023-02-03T06:33:36.208Z,99650.34
2023-02-03T06:36:02.603Z,99656.94
2023-02-03T06:38:29.404Z,99665.50
2023-02-03T06:40:55.813Z,99677.00
2023-02-03T06:43:22.446Z,99681.81
2023-02-03T06:45:49.204Z,99691.66
2023-02-03T06:48:16.023Z,99676.84
2023-02-03T06:50:43.043Z,99693.66
2023-02-03T06:53:09.402Z,99677.75
2023-02-03T06:55:35.952Z,99699.16
2023-02-03T06:58:02.613Z,99686.81
2023-02-03T07:00:29.305Z,99689.69
2023-02-03T07:02:57.905Z,99696.16
2023-02-03T07:05:25.134Z,99707.03
2023-02-03T07:07:51.980Z,99687.19
2023-02-03T07:10:18.658Z,99691.28
2023-02-03T07:12:45.100Z,99668.53
2023-02-03T07:15:12.879Z,99678.47
2023-02-03T07:17:39.358Z,99664.66
2023-02-03T07:20:07.272Z,99697.00
2023-02-03T07:22:33.876Z,99676.84
2023-02-03T07:25:00.251Z,99679.59
2023-02-03T07:27:26.929Z,99688.94
2023-02-03T07:29:53.327Z,99695.22
2023-02-03T07:32:20.255Z,99693.53
2023-02-03T07:34:46.906Z,99683.72
2023-02-03T07:37:13.561Z,99701.78
2023-02-03T07:39:39.993Z,99693.63
2023-02-03T07:42:06.434Z,99685.72
2023-02-03T07:44:32.938Z,99677.84
2023-02-03T07:46:59.571Z,99683.78
2023-02-03T07:49:26.127Z,99680.53
2023-02-03T07:51:52.618Z,99680.69
2023-02-03T07:54:19.222Z,99688.75
2023-02-03T07:56:45.702Z,99674.69
2023-02-03T07:59:12.195Z,99687.88
2023-02-03T08:01:38.604Z,99680.75
2023-02-03T08:04:05.405Z,99665.88
2023-02-03T08:06:32.262Z,99678.34
2023-02-03T08:08:58.692Z,99663.03
2023-02-03T08:11:25.319Z,99652.25
2023-02-03T08:13:52.801Z,99668.81
2023-02-03T08:16:19.216Z,99670.91
2023-02-03T08:18:45.661Z,99675.13
2023-02-03T08:21:12.094Z,99670.56
2023-02-03T08:23:38.492Z,99667.28
2023-02-03T08:26:05.275Z,99639.97
2023-02-03T08:28:31.819Z,99648.16
2023-02-03T08:30:58.402Z,99643.97
2023-02-03T08:33:24.922Z,99645.69
2023-02-03T08:35:51.494Z,99631.41
2023-02-03T08:38:18.337Z,99656.88
2023-02-03T08:40:44.923Z,99653.31
2023-02-03T08:43:11.538Z,99640.06
2023-02-03T08:45:40.041Z,99659.31
2023-02-03T08:48:06.867Z,99639.97
2023-02-03T08:50:33.396Z,99632.47
2023-02-03T08:52:59.825Z,99639.19
2023-02-03T08:55:26.419Z,99641.69
2023-02-03T08:57:53.065Z,99658.47
2023-02-03T09:00:20.055Z,99645.91
2023-02-03T09:02:46.880Z,99651.13
2023-02-03T09:05:13.311Z,99638.19
2023-02-03T09:07:39.928Z,99652.38
2023-02-03T09:10:07.017Z,99646.81
2023-02-03T09:12:33.470Z,99633.00
2023-02-03T09:14:59.793Z,99657.78
2023-02-03T09:17:26.517Z,99652.94
2023-02-03T09:19:53.062Z,99646.00
2023-02-03T09:22:19.428Z,99633.78
2023-02-03T09:24:45.868Z,99633.19
2023-02-03T09:27:12.352Z,99633.41
2023-02-03T09:29:40.291Z,99617.97
2023-02-03T09:32:07.264Z,99611.69
2023-02-03T09:34:33.716Z,99603.59
2023-02-03T09:37:00.031Z,99609.38
2023-02-03T09:39:26.673Z,99594.34
2023-02-03T09:42:14.509Z,99601.25
2023-02-03T09:44:44.194Z,99599.50
2023-02-03T09:47:19.911Z,99590.06
2023-02-03T09:49:58.116Z,99585.25
2023-02-03T09:52:37.464Z,99594.44
2023-02-03T09:55:18.889Z,99602.38
2023-02-03T09:58:15.723Z,99599.81
2023-02-03T10:00:48.914Z,99601.41
2023-02-03T10:03:43.949Z,99592.69
2023-02-03T10:06:41.513Z,99595.25
2023-02-03T10:09:26.766Z,99609.00
2023-02-03T10:12:15.941Z,99595.09
2023-02-03T10:15:21.589Z,99596.72
2023-02-03T10:17:56.438Z,99598.28
2023-02-03T10:20:40.500Z,99586.69
2023-02-03T10:23:15.075Z,99579.66
2023-02-03T10:25:50.823Z,99575.78
2023-02-03T10:28:20.184Z,99595.81
2023-02-03T10:31:01.236Z,99606.97
2023-02-03T10:33:30.201Z,99600.06
2023-02-03T10:36:18.415Z,99610.16
2023-02-03T10:39:12.756Z,99592.72
2023-02-03T10:41:39.134Z,99601.09
2023-02-03T10:44:07.427Z,99601.16
2023-02-03T10:46:37.950Z,99621.41
2023-02-03T10:49:04.817Z,99593.03
2023-02-03T10:51:50.797Z,99562.50
2023-02-03T10:54:33.967Z,99564.97
2023-02-03T10:57:07.169Z,99561.25
2023-02-03T10:59:37.861Z,99544.88
2023-02-03T11:02:10.919Z,99540.34
2023-02-03T11:04:37.632Z,99541.63
2023-02-03T11:07:23.149Z,99544.97
2023-02-03T11:09:49.542Z,99525.31
2023-02-03T11:12:18.855Z,99517.44
2023-02-03T11:14:46.620Z,99530.59
2023-02-03T11:17:17.416Z,99527.81
2023-02-03T11:19:48.694Z,99539.22
2023-02-03T11:22:28.963Z,99513.72
2023-02-03T11:24:56.070Z,99528.47
2023-02-03T11:27:23.315Z,99529.22
2023-02-03T11:29:54.896Z,99552.97
2023-02-03T11:32:33.294Z,99546.94
2023-02-03T11:35:14.250Z,99554.84
2023-02-03T11:37:49.944Z,99541.97
2023-02-03T11:40:19.409Z,99540.09
2023-02-03T11:43:01.928Z,99529.94
2023-02-03T11:45:48.201Z,99534.22
2023-02-03T11:48:18.266Z,99510.94
2023-02-03T11:51:39.287Z,99504.09
2023-02-03T11:54:17.891Z,99490.34
2023-02-03T11:56:56.536Z,99492.41
2023-02-03T11:59:50.980Z,99473.19
2023-02-03T12:02:36.198Z,99501.19
2023-02-03T12:05:14.569Z,99491.41
2023-02-03T12:08:18.668Z,99500.78
2023-02-03T12:10:52.682Z,99516.00
2023-02-03T12:13:37.266Z,99522.59
2023-02-03T12:16:19.273Z,99529.69
2023-02-03T12:19:28.892Z,99547.63
2023-02-03T12:22:14.221Z,99557.25
2023-02-03T12:24:56.473Z,99553.34
2023-02-03T12:27:38.461Z,99560.91
2023-02-03T12:30:23.353Z,99558.84
2023-02-03T12:32:56.779Z,99549.16
2023-02-03T12:35:31.077Z,99549.91
2023-02-03T12:38:22.450Z,99544.13
2023-02-03T12:40:55.397Z,99545.94
2023-02-03T12:43:33.117Z,99539.41
2023-02-03T12:46:09.943Z,99556.50
2023-02-03T12:49:15.180Z,99550.47
2023-02-03T12:52:10.499Z,99550.22
2023-02-03T12:54:49.976Z,99556.44
2023-02-03T12:57:36.805Z,99582.31
2023-02-03T13:00:26.311Z,99584.25
2023-02-03T13:03:06.274Z,99575.16
2023-02-03T13:05:48.131Z,99588.28
2023-02-03T13:08:18.991Z,99584.59
2023-02-03T13:10:51.945Z,99577.44
2023-02-03T13:13:27.705Z,99567.31
2023-02-03T13:15:56.658Z,99575.72
2023-02-03T13:18:27.809Z,99571.47
2023-02-03T13:20:54.657Z,99597.78
2023-02-03T13:23:22.094Z,99600.34
2023-02-03T13:26:08.002Z,99572.28
2023-02-03T13:28:59.286Z,99596.97
2023-02-03T13:31:44.082Z,99596.78
2023-02-03T13:34:29.588Z,99586.22
2023-02-03T13:37:23.158Z,99569.50
2023-02-03T13:40:05.326Z,99579.59
2023-02-03T13:42:34.797Z,99561.25
2023-02-03T13:45:32.333Z,99568.72
2023-02-03T13:48:17.948Z,99565.72
2023-02-03T13:50:46.392Z,99577.31
2023-02-03T13:53:25.017Z,99578.09
2023-02-03T13:56:00.975Z,99577.13
2023-02-03T13:58:34.260Z,99589.31
2023-02-03T14:01:05.208Z,99593.44
2023-02-03T14:03:31.692Z,99607.03
2023-02-03T14:05:59.423Z,99592.53
2023-02-03T14:08:25.779Z,99614.38
2023-02-03T14:11:29.788Z,99612.13
2023-02-03T14:14:08.146Z,99608.53
2023-02-03T14:16:43.262Z,99613.28
2023-02-03T14:19:32.706Z,99621.59
2023-02-03T14:22:05.581Z,99597.91
2023-02-03T14:24:40.462Z,99635.47
2023-02-03T14:27:19.326Z,99619.13
2023-02-03T14:29:46.026Z,99597.44
2023-02-03T14:32:13.608Z,99589.44
2023-02-03T14:34:45.417Z,99604.59
2023-02-03T14:37:23.096Z,99614.63
2023-02-03T14:40:14.066Z,99625.44
2023-02-03T14:43:05.038Z,99627.84
2023-02-03T14:46:02.773Z,99626.69
2023-02-03T14:48:50.144Z,99622.09
2023-02-03T14:51:38.283Z,99617.47
2023-02-03T14:54:13.124Z,99620.44
2023-02-03T14:56:48.548Z,99606.31
2023-02-03T14:59:15.201Z,99604.41
2023-02-03T15:01:41.462Z,99621.91
2023-02-03T15:04:13.517Z,99616.50
2023-02-03T15:06:48.801Z,99604.38
2023-02-03T15:09:37.319Z,99609.44
2023-02-03T15:12:16.990Z,99605.84
2023-02-03T15:14:43.445Z,99625.63
2023-02-03T15:17:23.226Z,99619.97
2023-02-03T15:19:50.356Z,99626.53
2023-02-03T15:22:25.671Z,99649.06
2023-02-03T15:25:00.830Z,99644.59
2023-02-03T15:27:29.641Z,99645.13
2023-02-03T15:29:56.157Z,99657.41
2023-02-03T15:32:34.221Z,99639.94
2023-02-03T15:35:04.661Z,99654.09
2023-02-03T15:37:40.398Z,99646.22
2023-02-03T15:40:18.719Z,99642.66
2023-02-03T15:42:57.387Z,99650.84
2023-02-03T15:45:32.498Z,99641.66
2023-02-03T15:48:16.162Z,99649.94
2023-02-03T15:50:47.810Z,99664.13
2023-02-03T15:53:25.019Z,99662.88
2023-02-03T15:55:56.258Z,99667.16
2023-02-03T15:58:26.253Z,99664.47
2023-02-03T16:00:55.824Z,99658.63
2023-02-03T16:03:33.484Z,99656.84
2023-02-03T16:06:08.746Z,99647.06
2023-02-03T16:08:37.144Z,99653.09
2023-02-03T16:11:30.632Z,99664.66
2023-02-03T16:13:59.082Z,99662.56
2023-02-03T16:16:49.405Z,99662.25
2023-02-03T16:19:22.201Z,99676.16
2023-02-03T16:21:48.515Z,99676.59
2023-02-03T16:24:36.360Z,99663.41
2023-02-03T16:27:22.691Z,99664.19
2023-02-03T16:29:49.092Z,99671.97
2023-02-03T16:32:19.022Z,99677.91
2023-02-03T16:34:45.930Z,99676.63
2023-02-03T16:37:33.202Z,99685.91
2023-02-03T16:39:59.623Z,99696.19
2023-02-03T16:42:26.021Z,99689.91
2023-02-03T16:44:52.476Z,99688.97
2023-02-03T16:47:25.584Z,99729.25
2023-02-03T16:49:51.913Z,99705.91
2023-02-03T16:52:18.569Z,99704.84
2023-02-03T16:54:44.951Z,99726.22
2023-02-03T16:57:11.332Z,99727.84
2023-02-03T16:59:37.680Z,99742.34
2023-02-03T17:02:04.180Z,99698.44
2023-02-03T17:04:30.506Z,99734.38
2023-02-03T17:06:56.939Z,99737.13
2023-02-03T17:09:23.438Z,99768.66
2023-02-03T17:11:49.923Z,99729.25
2023-02-03T17:14:17.157Z,99746.97
2023-02-03T17:16:43.574Z,99750.13
2023-02-03T17:19:11.534Z,99745.13
2023-02-03T17:21:38.085Z,99753.78
2023-02-03T17:24:04.914Z,99756.78
2023-02-03T17:26:31.631Z,99768.59
2023-02-03T17:28:57.952Z,99783.75
2023-02-03T17:31:24.442Z,99790.28
2023-02-03T17:33:52.067Z,99792.13
2023-02-03T17:36:19.002Z,99763.91
2023-02-03T17:55:12.065Z,99796.41
2023-02-03T17:57:38.630Z,99805.16
2023-02-03T18:00:06.367Z,99799.19
2023-02-03T18:02:32.726Z,99790.41
2023-02-03T18:04:59.100Z,99806.84
2023-02-03T18:07:25.386Z,99796.66
2023-02-03T18:09:51.680Z,99798.41
2023-02-03T18:12:18.119Z,99789.94
2023-02-03T18:14:44.590Z,99820.00
2023-02-03T18:17:10.967Z,99809.78
2023-02-03T18:19:37.322Z,99809.97
2023-02-03T18:22:03.705Z,99804.84
2023-02-03T18:24:30.193Z,99841.72
2023-02-03T18:26:56.511Z,99846.53
2023-02-03T18:29:22.931Z,99843.66
2023-02-03T18:31:49.280Z,99851.72
2023-02-03T18:34:16.357Z,99862.69
2023-02-03T18:36:42.773Z,99851.09
2023-02-03T18:39:11.119Z,99849.63
2023-02-03T18:41:39.060Z,99853.59
2023-02-03T18:44:05.630Z,99864.88
2023-02-03T18:46:32.469Z,99859.34
2023-02-03T18:48:59.796Z,99853.78
2023-02-03T18:51:26.767Z,99856.00
2023-02-03T18:53:56.910Z,99853.72
2023-02-03T18:56:26.435Z,99877.63
2023-02-03T18:58:53.429Z,99869.06
2023-02-03T19:01:25.735Z,99895.94
2023-02-03T19:03:53.617Z,99894.44
2023-02-03T19:06:20.036Z,99886.88
2023-02-03T19:08:47.124Z,99896.03
2023-02-03T19:11:14.833Z,99889.44
2023-02-03T19:13:42.023Z,99882.03
2023-02-03T19:16:11.475Z,99893.78
2023-02-03T19:18:37.874Z,99919.06
2023-02-03T19:21:04.329Z,99913.88
2023-02-03T19:23:31.017Z,99910.25
2023-02-03T19:25:57.507Z,99921.69
2023-02-03T19:28:30.912Z,99929.03
2023-02-03T19:31:08.368Z,99925.03
2023-02-03T19:33:35.861Z,99928.19
2023-02-03T19:36:02.880Z,99925.63
2023-02-03T19:38:29.314Z,99937.53
2023-02-03T19:40:55.822Z,99950.19
2023-02-03T19:43:22.196Z,99948.25
2023-02-03T19:45:48.567Z,99952.41
2023-02-03T19:48:14.987Z,99925.84
2023-02-03T19:50:41.302Z,99946.59
2023-02-03T19:53:07.609Z,99933.81
2023-02-03T19:55:33.966Z,99955.75
2023-02-03T19:58:00.303Z,99970.09
2023-02-03T20:00:28.152Z,99969.25
2023-02-03T20:02:54.881Z,99969.59
2023-02-03T20:05:21.856Z,99946.41
2023-02-03T20:07:48.245Z,99977.22
2023-02-03T20:10:14.726Z,100003.88
2023-02-03T20:12:41.341Z,99976.97
2023-02-03T20:15:07.999Z,100003.91
2023-02-03T20:17:34.411Z,100009.84
2023-02-03T20:20:00.990Z,100008.38
2023-02-03T20:22:27.400Z,100025.84
2023-02-03T20:24:53.700Z,100019.56
2023-02-03T20:27:20.231Z,100028.31
2023-02-03T20:29:46.592Z,100030.84
2023-02-03T20:32:13.029Z,100021.09
2023-02-03T20:34:39.538Z,100053.16
2023-02-03T20:37:06.115Z,100046.78
2023-02-03T20:39:32.454Z,100056.03
2023-02-03T20:41:58.932Z,100054.88
2023-02-03T20:44:25.308Z,100054.00
2023-02-03T20:46:51.750Z,100079.06
2023-02-03T20:49:18.432Z,100078.94
2023-02-03T20:51:45.199Z,100067.91
2023-02-03T20:54:16.096Z,100090.09
2023-02-03T20:56:42.496Z,100068.66
2023-02-03T20:59:13.389Z,100088.13
2023-02-03T21:01:39.873Z,100107.50
2023-02-03T21:04:17.626Z,100095.56
2023-02-03T21:06:43.922Z,100100.41
2023-02-03T21:09:15.908Z,100104.94
2023-02-03T21:11:42.879Z,100114.47
2023-02-03T21:14:18.894Z,100115.78
2023-02-03T21:16:45.787Z,100122.06
2023-02-03T21:19:27.027Z,100121.88
2023-02-03T21:21:53.412Z,100146.50
2023-02-03T21:24:25.520Z,100153.44
2023-02-03T21:26:52.569Z,100153.56
2023-02-03T21:29:28.874Z,100151.63
2023-02-03T21:31:55.644Z,100165.38
2023-02-03T21:34:27.897Z,100165.66
2023-02-03T21:36:55.190Z,100175.19
2023-02-03T21:39:33.536Z,100173.00
2023-02-03T21:42:34.077Z,100180.25
2023-02-03T21:45:00.375Z,100178.03
2023-02-03T21:47:26.857Z,100170.34
2023-02-03T21:49:53.200Z,100159.34
2023-02-03T21:52:19.552Z,100153.88
2023-02-03T21:54:45.936Z,100171.72
2023-02-03T21:57:15.324Z,100153.16
2023-02-03T21:59:42.059Z,100183.84
2023-02-03T22:02:42.200Z,100165.88
2023-02-03T22:05:15.128Z,100173.53
2023-02-03T22:07:41.624Z,100179.19
2023-02-03T22:10:08.370Z,100168.88
2023-02-03T22:12:34.855Z,100167.09
2023-02-03T22:15:01.210Z,100181.06
2023-02-03T22:17:27.529Z,100176.56
2023-02-03T22:19:53.950Z,100169.09
2023-02-03T22:22:20.340Z,100179.47
2023-02-03T22:24:46.677Z,100185.50
2023-02-03T22:27:13.322Z,100152.59
2023-02-03T22:29:39.653Z,100169.44
2023-02-03T22:32:06.048Z,100157.69
2023-02-03T22:34:32.361Z,100168.06
2023-02-03T22:36:58.728Z,100172.88
2023-02-03T22:39:25.147Z,100171.66
2023-02-03T22:41:51.451Z,100199.41
2023-02-03T22:44:18.168Z,100184.94
2023-02-03T22:46:44.437Z,100194.63
2023-02-03T22:49:10.809Z,100201.09
2023-02-03T22:51:37.132Z,100198.81
2023-02-03T22:54:03.568Z,100179.69
2023-02-03T22:56:29.935Z,100190.22
2023-02-03T22:58:56.375Z,100202.75
2023-02-03T23:01:22.741Z,100207.53
2023-02-03T23:03:49.115Z,100212.88
2023-02-03T23:06:15.464Z,100213.28
2023-02-03T23:08:41.775Z,100210.00
2023-02-03T23:11:08.173Z,100212.19
2023-02-03T23:13:34.575Z,100212.50
2023-02-03T23:16:00.927Z,100201.97
2023-02-03T23:18:27.562Z,100218.69
2023-02-03T23:20:54.002Z,100211.44
2023-02-03T23:23:20.344Z,100202.53
2023-02-03T23:25:46.737Z,100220.59
2023-02-03T23:28:13.174Z,100222.69
2023-02-03T23:30:39.595Z,100222.03
2023-02-03T23:33:05.889Z,100220.84
2023-02-03T23:35:32.262Z,100233.94
2023-02-03T23:37:58.788Z,100238.75
2023-02-03T23:40:25.179Z,100228.59
2023-02-03T23:42:51.590Z,100216.63
2023-02-03T23:45:18.015Z,100240.03
2023-02-03T23:47:46.196Z,100229.69
2023-02-03T23:50:15.506Z,100256.22
2023-02-03T23:52:41.908Z,100250.13
2023-02-03T23:55:11.957Z,100253.50
2023-02-03T23:57:38.416Z,100264.25
